This is the latest recevied weather packets stored in our database for station/object KC3HIX. If no packets are shown the sender has not sent any weather packets the latest 10 day(s).
| Time | Temp. | Humidity | Pressure | Rain* | Wind** | Luminosity | Snow |
|---|---|---|---|---|---|---|---|
| 1777917607 | 22.22° C | 38% | 1009.3 hPa | 0 mm | - | - | - |
| 1777916406 | 22.22° C | 38% | 1009.9 hPa | 0 mm | - | - | - |
| 1777916107 | 22.22° C | 40% | 1009.6 hPa | 0 mm | - | - | - |
| 1777914906 | 21.11° C | 41% | 1009.9 hPa | 0 mm | - | - | - |
| 1777913706 | 20.56° C | 38% | 1009.9 hPa | 0 mm | - | - | - |
| 1777911627 | 20.56° C | 42% | 1010.6 hPa | 0 mm | - | - | - |
| 1777910706 | 20° C | 44% | 1011 hPa | 0 mm | - | - | - |
| 1777908906 | 19.44° C | 43% | 1011.7 hPa | 0 mm | - | - | - |
| 1777908006 | 18.89° C | 39% | 1011.7 hPa | 0 mm | - | - | - |
| 1777907106 | 18.89° C | 42% | 1012 hPa | 0 mm | - | - | - |
| 1777905906 | 18.33° C | 41% | 1012 hPa | 0 mm | - | - | - |
| 1777902306 | 19.44° C | 40% | 1012.3 hPa | 0 mm | - | - | - |
| 1777901106 | 18.33° C | 45% | 1012.3 hPa | 0 mm | - | - | - |
| 1777900506 | 17.22° C | 47% | 1012 hPa | 0 mm | - | - | - |
| 1777895705 | 6.67° C | 81% | 1013 hPa | 0 mm | - | - | - |
| 1777893326 | 5° C | 87% | 1013 hPa | 0 mm | - | - | - |
| 1777890605 | 2.22° C | 89% | 1013 hPa | 0 mm | - | - | - |
| 1777888805 | 1.67° C | 88% | 1013.4 hPa | 0 mm | - | - | - |
| 1777887005 | 2.22° C | 87% | 1013 hPa | 0 mm | - | - | - |
| 1777886426 | 2.22° C | 87% | 1013 hPa | 0 mm | - | - | - |
| 1777885205 | 2.22° C | 86% | 1013.4 hPa | 0 mm | - | - | - |
| 1777884905 | 2.22° C | 86% | 1013 hPa | 0 mm | - | - | - |
| 1777884605 | 2.22° C | 86% | 1013.4 hPa | 0 mm | - | - | - |
| 1777881904 | 3.33° C | 86% | 1013.4 hPa | 0 mm | - | - | - |
| 1777881604 | 3.33° C | 86% | 1013.4 hPa | 0 mm | - | - | - |
* Rain latest hour (hover to see other rain measurements)
** Current wind speed in m/s (hover to see current wind gust speed)